Time;durP1;ratioP1;P1;durP2;ratioP2;P2;SDS_P1;SDS_P2;PMS_P1;PMS_P2;Temp;Humidity;BMP_temperature;BMP_pressure;BME280_temperature;BME280_humidity;BME280_pressure;Samples;Min_cycle;Max_cycle;Signal;HPM_P1;HPM_P2
2022/06/18 00:01:34;;;;;;;10.30;6.40;;;;;;;;;;4938392;28;20059;-74
2022/06/18 00:04:05;;;;;;;9.52;7.07;;;;;;;;;;4937622;29;20141;-74
2022/06/18 00:06:34;;;;;;;11.75;6.90;;;;;;;;;;4940947;29;20059;-74
2022/06/18 00:09:02;;;;;;;10.30;6.75;;;;;;;;;;4939682;28;20148;-74
2022/06/18 00:14:15;;;;;;;11.95;6.82;;;;;;;;;;4940995;28;20058;-74
2022/06/18 00:16:42;;;;;;;9.85;6.95;;;;;;;;;;4941325;28;20103;-74
2022/06/18 00:19:10;;;;;;;12.15;7.10;;;;;;;;;;4940499;28;20569;-74
2022/06/18 00:21:37;;;;;;;16.20;7.63;;;;;;;;;;4938481;28;20058;-74
2022/06/18 00:24:07;;;;;;;9.70;6.85;;;;;;;;;;4944131;28;20107;-74
2022/06/18 00:26:36;;;;;;;11.15;7.03;;;;;;;;;;4935387;29;20055;-74
2022/06/18 00:29:03;;;;;;;10.93;7.28;;;;;;;;;;4935938;28;20102;-74
2022/06/18 00:31:32;;;;;;;13.27;6.65;;;;;;;;;;4939951;28;20051;-74
2022/06/18 00:33:59;;;;;;;10.32;7.15;;;;;;;;;;4938074;29;20114;-74
2022/06/18 00:36:26;;;;;;;9.38;7.05;;;;;;;;;;4942052;28;20062;-74
2022/06/18 00:38:53;;;;;;;12.07;6.85;;;;;;;;;;4941254;29;20213;-74
2022/06/18 00:41:22;;;;;;;9.52;6.85;;;;;;;;;;4947193;29;20051;-74
2022/06/18 00:43:55;;;;;;;10.85;7.18;;;;;;;;;;4946272;28;20071;-74
2022/06/18 00:46:24;;;;;;;10.47;6.90;;;;;;;;;;4949269;28;20074;-74
2022/06/18 00:48:55;;;;;;;9.25;6.75;;;;;;;;;;4930602;29;20055;-74
2022/06/18 00:51:26;;;;;;;9.70;7.00;;;;;;;;;;4948039;28;20062;-74
2022/06/18 00:53:54;;;;;;;12.05;7.20;;;;;;;;;;4950628;28;20047;-74
2022/06/18 00:56:24;;;;;;;16.48;7.13;;;;;;;;;;4949792;28;20062;-74
2022/06/18 00:58:55;;;;;;;13.18;6.10;;;;;;;;;;4951994;28;20070;-74
2022/06/18 01:01:26;;;;;;;13.45;6.22;;;;;;;;;;4949366;28;20086;-73
2022/06/18 01:03:55;;;;;;;16.73;6.78;;;;;;;;;;4948134;28;20051;-74
2022/06/18 01:06:24;;;;;;;17.88;6.45;;;;;;;;;;4950065;28;20072;-74
2022/06/18 01:08:55;;;;;;;16.00;6.80;;;;;;;;;;4949684;28;20138;-74
2022/06/18 01:11:24;;;;;;;20.45;7.32;;;;;;;;;;4949701;28;20451;-74
2022/06/18 01:13:52;;;;;;;18.02;7.60;;;;;;;;;;4951998;28;20054;-74
2022/06/18 01:16:20;;;;;;;18.23;8.65;;;;;;;;;;4944129;29;20055;-74
2022/06/18 01:18:48;;;;;;;17.02;8.00;;;;;;;;;;4952228;28;20063;-74
2022/06/18 01:21:18;;;;;;;15.40;7.97;;;;;;;;;;4952987;28;20114;-74
2022/06/18 01:23:48;;;;;;;20.05;8.20;;;;;;;;;;4950047;28;20059;-74
2022/06/18 01:26:17;;;;;;;20.17;8.73;;;;;;;;;;4945957;28;20173;-74
2022/06/18 01:28:44;;;;;;;24.67;8.32;;;;;;;;;;4946966;28;20118;-74
2022/06/18 01:31:11;;;;;;;20.17;8.57;;;;;;;;;;4951380;28;20506;-74
2022/06/18 01:33:39;;;;;;;15.95;8.27;;;;;;;;;;4951195;28;20062;-74
2022/06/18 01:36:09;;;;;;;22.92;8.07;;;;;;;;;;4950233;28;20043;-74
2022/06/18 01:38:39;;;;;;;21.27;9.02;;;;;;;;;;4949279;28;20434;-74
2022/06/18 01:43:58;;;;;;;22.45;8.68;;;;;;;;;;4962465;28;20081;-74
2022/06/18 01:46:26;;;;;;;21.58;9.38;;;;;;;;;;4947646;28;20058;-74
2022/06/18 01:48:55;;;;;;;29.23;10.57;;;;;;;;;;4943836;28;20699;-74
2022/06/18 01:51:24;;;;;;;22.98;10.50;;;;;;;;;;4948726;28;20110;-74
2022/06/18 01:53:53;;;;;;;22.55;10.05;;;;;;;;;;4945912;29;20506;-74
2022/06/18 01:56:22;;;;;;;21.23;11.13;;;;;;;;;;4946658;28;20118;-74
2022/06/18 01:58:51;;;;;;;23.27;10.43;;;;;;;;;;4946374;29;20071;-74
2022/06/18 02:01:24;;;;;;;23.00;10.50;;;;;;;;;;4945262;28;20129;-74
2022/06/18 02:03:51;;;;;;;20.35;11.30;;;;;;;;;;4947099;28;20062;-74
2022/06/18 02:06:20;;;;;;;22.17;9.82;;;;;;;;;;4944780;28;20051;-74
2022/06/18 02:08:47;;;;;;;23.98;10.32;;;;;;;;;;4946796;28;20498;-74
2022/06/18 02:11:16;;;;;;;26.25;10.07;;;;;;;;;;4947690;29;20474;-74
2022/06/18 02:13:45;;;;;;;21.17;10.20;;;;;;;;;;4948547;28;20051;-74
2022/06/18 02:16:15;;;;;;;24.95;9.85;;;;;;;;;;4943534;28;20116;-74
2022/06/18 02:18:44;;;;;;;23.48;10.00;;;;;;;;;;4947481;29;20054;-74
2022/06/18 02:21:12;;;;;;;22.38;10.45;;;;;;;;;;4950506;28;20059;-74
2022/06/18 02:23:40;;;;;;;23.80;10.85;;;;;;;;;;4949036;28;20147;-74
2022/06/18 02:26:07;;;;;;;20.52;10.98;;;;;;;;;;4948856;28;20101;-74
2022/06/18 02:28:37;;;;;;;29.42;11.95;;;;;;;;;;4949032;29;20130;-74
2022/06/18 02:31:05;;;;;;;26.42;12.57;;;;;;;;;;4949535;28;20100;-74
2022/06/18 02:33:34;;;;;;;25.50;10.93;;;;;;;;;;4958778;28;20046;-74
2022/06/18 02:36:07;;;;;;;28.27;11.68;;;;;;;;;;4950512;28;20046;-74
2022/06/18 02:38:34;;;;;;;25.80;11.05;;;;;;;;;;4952886;28;20619;-74
2022/06/18 02:41:02;;;;;;;27.58;12.05;;;;;;;;;;4955919;28;20051;-74
2022/06/18 02:43:29;;;;;;;27.90;12.82;;;;;;;;;;4955350;28;20047;-74
2022/06/18 02:45:57;;;;;;;22.38;12.38;;;;;;;;;;4951226;28;20449;-74
2022/06/18 02:48:26;;;;;;;24.98;11.73;;;;;;;;;;4952611;28;20051;-74
2022/06/18 02:50:53;;;;;;;29.17;12.43;;;;;;;;;;4949978;28;20622;-74
2022/06/18 02:53:22;;;;;;;26.85;12.48;;;;;;;;;;4953036;28;20509;-74
2022/06/18 02:55:50;;;;;;;28.88;12.65;;;;;;;;;;4948338;28;20055;-74
2022/06/18 02:58:20;;;;;;;25.83;12.38;;;;;;;;;;4950047;28;20055;-74
2022/06/18 03:00:51;;;;;;;31.50;13.13;;;;;;;;;;4953290;28;20113;-74
2022/06/18 03:03:18;;;;;;;31.02;12.80;;;;;;;;;;4953320;28;20082;-74
2022/06/18 03:05:46;;;;;;;22.70;12.75;;;;;;;;;;4952253;28;20105;-74
2022/06/18 03:08:13;;;;;;;24.77;12.98;;;;;;;;;;4954688;28;20046;-74
2022/06/18 03:13:27;;;;;;;29.85;12.88;;;;;;;;;;4949618;28;20046;-74
2022/06/18 03:15:55;;;;;;;25.27;11.65;;;;;;;;;;4949154;28;20062;-74
2022/06/18 03:18:24;;;;;;;36.72;13.30;;;;;;;;;;4953582;28;20511;-74
2022/06/18 03:20:57;;;;;;;28.85;12.70;;;;;;;;;;4950666;28;20113;-74
2022/06/18 03:23:25;;;;;;;31.10;13.82;;;;;;;;;;4952179;28;20057;-74
2022/06/18 03:25:54;;;;;;;29.92;12.30;;;;;;;;;;4951488;28;20113;-74
2022/06/18 03:28:22;;;;;;;27.65;12.25;;;;;;;;;;4949313;28;20326;-74
2022/06/18 03:30:49;;;;;;;27.02;12.10;;;;;;;;;;4951904;28;20042;-74
2022/06/18 03:33:17;;;;;;;34.03;13.48;;;;;;;;;;4947383;28;20059;-74
2022/06/18 03:35:46;;;;;;;30.10;12.35;;;;;;;;;;4951068;28;20057;-74
2022/06/18 03:38:14;;;;;;;25.30;11.80;;;;;;;;;;4950658;28;20117;-74
2022/06/18 03:40:43;;;;;;;25.50;11.48;;;;;;;;;;4950004;28;20266;-74
2022/06/18 03:43:12;;;;;;;27.20;12.10;;;;;;;;;;4949289;28;20039;-74
2022/06/18 03:45:41;;;;;;;23.63;11.55;;;;;;;;;;4953216;28;20453;-74
2022/06/18 03:48:08;;;;;;;23.02;11.20;;;;;;;;;;4955665;28;20576;-74
2022/06/18 03:50:35;;;;;;;30.48;11.10;;;;;;;;;;4953468;28;20133;-74
2022/06/18 03:53:03;;;;;;;26.83;11.15;;;;;;;;;;4949112;28;20386;-74
2022/06/18 03:55:30;;;;;;;23.67;11.48;;;;;;;;;;4953462;28;20372;-74
2022/06/18 03:57:57;;;;;;;23.92;9.85;;;;;;;;;;4951652;28;20047;-74
2022/06/18 04:00:26;;;;;;;28.02;11.80;;;;;;;;;;4948708;28;20062;-74
2022/06/18 04:02:53;;;;;;;29.10;10.35;;;;;;;;;;4952133;28;20058;-74
2022/06/18 04:05:20;;;;;;;26.42;9.95;;;;;;;;;;4950062;28;20063;-74
2022/06/18 04:07:47;;;;;;;26.95;9.82;;;;;;;;;;4955129;28;20054;-74
2022/06/18 04:10:17;;;;;;;27.42;9.00;;;;;;;;;;4949209;28;20069;-74
2022/06/18 04:12:45;;;;;;;19.67;8.57;;;;;;;;;;4951314;28;20125;-74
2022/06/18 04:15:13;;;;;;;23.15;9.43;;;;;;;;;;4951820;28;20148;-74
2022/06/18 04:17:42;;;;;;;27.27;8.68;;;;;;;;;;4950225;28;20073;-74
2022/06/18 04:20:15;;;;;;;23.73;9.00;;;;;;;;;;4952225;28;20118;-74
2022/06/18 04:22:42;;;;;;;21.98;7.80;;;;;;;;;;4945413;28;20055;-74
2022/06/18 04:25:10;;;;;;;19.95;7.40;;;;;;;;;;4960979;28;20057;-74
2022/06/18 04:27:37;;;;;;;25.50;9.00;;;;;;;;;;4955168;28;20684;-74
2022/06/18 04:30:04;;;;;;;22.42;8.00;;;;;;;;;;4958121;28;20105;-74
2022/06/18 04:32:32;;;;;;;16.63;7.25;;;;;;;;;;4957969;28;21522;-74
2022/06/18 04:35:00;;;;;;;21.75;8.10;;;;;;;;;;4957655;28;20149;-74
2022/06/18 04:37:27;;;;;;;25.90;9.05;;;;;;;;;;4954296;28;20098;-74
2022/06/18 04:39:55;;;;;;;19.30;7.90;;;;;;;;;;4958258;28;20047;-74
2022/06/18 04:42:22;;;;;;;14.00;6.95;;;;;;;;;;4958102;28;20051;-74
2022/06/18 04:44:50;;;;;;;18.48;7.38;;;;;;;;;;4958527;28;20387;-74
2022/06/18 04:47:17;;;;;;;19.35;7.32;;;;;;;;;;4957970;28;20058;-74
2022/06/18 04:49:44;;;;;;;25.92;7.30;;;;;;;;;;4956066;28;20054;-74
2022/06/18 04:52:13;;;;;;;21.98;6.70;;;;;;;;;;4956572;28;20051;-74
2022/06/18 04:54:40;;;;;;;18.52;6.32;;;;;;;;;;4956536;28;20050;-74
2022/06/18 04:57:07;;;;;;;15.75;6.13;;;;;;;;;;4953542;28;20058;-74
2022/06/18 04:59:35;;;;;;;21.80;6.78;;;;;;;;;;4956267;28;20387;-74
2022/06/18 05:02:04;;;;;;;26.17;6.68;;;;;;;;;;4963321;28;20054;-74
2022/06/18 05:04:31;;;;;;;21.20;7.03;;;;;;;;;;4959321;28;20059;-74
2022/06/18 05:06:58;;;;;;;17.30;6.68;;;;;;;;;;4955172;28;20054;-74
2022/06/18 05:09:27;;;;;;;20.45;6.70;;;;;;;;;;4957524;28;20081;-74
2022/06/18 05:11:54;;;;;;;17.80;6.65;;;;;;;;;;4955696;28;20055;-74
2022/06/18 05:14:21;;;;;;;21.48;6.85;;;;;;;;;;4955561;28;20054;-74
2022/06/18 05:16:48;;;;;;;16.50;6.88;;;;;;;;;;4956572;28;20490;-74
2022/06/18 05:19:22;;;;;;;21.38;6.00;;;;;;;;;;4954584;28;20576;-74
2022/06/18 05:21:49;;;;;;;17.38;6.38;;;;;;;;;;4955129;28;20141;-74
2022/06/18 05:24:16;;;;;;;12.65;5.63;;;;;;;;;;4955039;28;20058;-75
2022/06/18 05:26:47;;;;;;;14.65;6.03;;;;;;;;;;4957553;28;20499;-75
2022/06/18 05:29:15;;;;;;;17.55;5.70;;;;;;;;;;4958793;28;20059;-74
2022/06/18 05:31:42;;;;;;;17.50;5.68;;;;;;;;;;4957750;28;20141;-74
2022/06/18 05:34:09;;;;;;;18.95;5.38;;;;;;;;;;4958334;28;20066;-74
2022/06/18 05:36:36;;;;;;;15.23;4.90;;;;;;;;;;4958505;28;20073;-74
2022/06/18 05:39:04;;;;;;;12.27;4.85;;;;;;;;;;4951310;28;20125;-74
2022/06/18 05:41:31;;;;;;;15.00;4.25;;;;;;;;;;4955115;28;20058;-74
2022/06/18 05:44:02;;;;;;;14.27;4.47;;;;;;;;;;4954807;28;20065;-74
2022/06/18 05:46:29;;;;;;;13.23;4.45;;;;;;;;;;4952250;28;20046;-74
2022/06/18 05:48:56;;;;;;;12.50;4.07;;;;;;;;;;4954285;28;20137;-74
2022/06/18 05:51:24;;;;;;;17.15;4.60;;;;;;;;;;4950935;28;20157;-74
2022/06/18 05:53:51;;;;;;;11.77;3.67;;;;;;;;;;4954653;28;20051;-74
2022/06/18 05:56:18;;;;;;;16.25;4.20;;;;;;;;;;4950583;28;20446;-74
2022/06/18 05:58:46;;;;;;;10.68;3.55;;;;;;;;;;4949715;28;20426;-74
2022/06/18 06:01:14;;;;;;;9.23;3.50;;;;;;;;;;4952317;28;20121;-74
2022/06/18 06:03:42;;;;;;;10.85;3.20;;;;;;;;;;4946949;28;20051;-74
2022/06/18 06:06:09;;;;;;;9.05;3.00;;;;;;;;;;4956957;28;20047;-74
2022/06/18 06:08:36;;;;;;;8.20;2.65;;;;;;;;;;4953148;28;20043;-74
2022/06/18 06:13:48;;;;;;;5.97;1.70;;;;;;;;;;4949898;28;20053;-74
2022/06/18 06:16:16;;;;;;;6.88;1.88;;;;;;;;;;4952664;28;20055;-74
2022/06/18 06:18:44;;;;;;;5.47;1.80;;;;;;;;;;4952274;28;20055;-74
2022/06/18 06:21:11;;;;;;;7.18;2.08;;;;;;;;;;4953680;28;20042;-74
2022/06/18 06:23:38;;;;;;;8.05;1.70;;;;;;;;;;4952550;28;21488;-74
2022/06/18 06:26:11;;;;;;;7.95;1.85;;;;;;;;;;4946495;28;20062;-74
2022/06/18 06:28:39;;;;;;;4.97;1.73;;;;;;;;;;4956312;28;20058;-74
2022/06/18 06:31:06;;;;;;;6.28;1.65;;;;;;;;;;4947925;28;20114;-74
2022/06/18 06:33:34;;;;;;;4.25;1.60;;;;;;;;;;4951015;28;20163;-74
2022/06/18 06:36:02;;;;;;;4.55;1.52;;;;;;;;;;4946763;28;20055;-74
2022/06/18 06:38:29;;;;;;;4.53;1.95;;;;;;;;;;4948459;28;20059;-74
2022/06/18 06:40:57;;;;;;;5.38;1.77;;;;;;;;;;4948371;28;20059;-74
2022/06/18 06:43:24;;;;;;;3.95;1.50;;;;;;;;;;4961596;28;20047;-74
2022/06/18 06:45:52;;;;;;;3.22;1.38;;;;;;;;;;4939971;28;20130;-74
2022/06/18 06:48:19;;;;;;;5.57;1.48;;;;;;;;;;4942506;28;20509;-74
2022/06/18 06:50:48;;;;;;;11.43;1.95;;;;;;;;;;4942376;28;20522;-74
2022/06/18 06:53:15;;;;;;;5.28;1.40;;;;;;;;;;4944281;28;20055;-74
2022/06/18 06:58:27;;;;;;;6.65;1.63;;;;;;;;;;4926523;29;20047;-74
2022/06/18 07:00:56;;;;;;;5.55;1.80;;;;;;;;;;4923369;28;20055;-74
2022/06/18 07:03:25;;;;;;;8.15;1.90;;;;;;;;;;4933650;28;20047;-74
2022/06/18 07:05:53;;;;;;;5.22;1.40;;;;;;;;;;4932810;28;20716;-74
2022/06/18 07:08:20;;;;;;;5.70;1.80;;;;;;;;;;4931913;28;20103;-74
2022/06/18 07:10:49;;;;;;;8.27;2.00;;;;;;;;;;4928593;29;20608;-74
2022/06/18 07:13:17;;;;;;;5.13;1.60;;;;;;;;;;4928823;29;20122;-74
2022/06/18 07:15:45;;;;;;;7.22;1.90;;;;;;;;;;4931919;29;20082;-74
2022/06/18 07:18:14;;;;;;;7.60;1.90;;;;;;;;;;4924427;29;20051;-74
2022/06/18 07:20:42;;;;;;;4.60;1.60;;;;;;;;;;4922851;28;20114;-74
2022/06/18 07:23:11;;;;;;;5.95;1.65;;;;;;;;;;4929933;29;20047;-74
2022/06/18 07:25:38;;;;;;;5.80;1.80;;;;;;;;;;4933156;29;20063;-74
2022/06/18 07:28:06;;;;;;;8.40;2.08;;;;;;;;;;4924587;29;20047;-74
2022/06/18 07:30:33;;;;;;;5.88;2.20;;;;;;;;;;4922523;29;20055;-74
2022/06/18 07:33:00;;;;;;;5.53;1.80;;;;;;;;;;4941398;28;20055;-74
2022/06/18 07:35:29;;;;;;;4.70;1.88;;;;;;;;;;4944505;28;20047;-74
2022/06/18 07:37:57;;;;;;;5.53;1.65;;;;;;;;;;4944600;29;20047;-74
2022/06/18 07:40:26;;;;;;;8.13;1.80;;;;;;;;;;4942998;29;20051;-74
2022/06/18 07:42:54;;;;;;;4.40;1.70;;;;;;;;;;4944156;29;20047;-74
2022/06/18 07:45:24;;;;;;;6.68;1.40;;;;;;;;;;4943503;29;20070;-74
2022/06/18 07:47:51;;;;;;;6.75;1.80;;;;;;;;;;4940663;29;20059;-74
2022/06/18 07:50:19;;;;;;;6.50;1.85;;;;;;;;;;4942540;28;20051;-74
2022/06/18 07:52:47;;;;;;;4.68;1.40;;;;;;;;;;4937680;28;20051;-75
2022/06/18 07:55:16;;;;;;;6.47;1.90;;;;;;;;;;4943663;29;20419;-75
2022/06/18 07:57:46;;;;;;;8.57;1.95;;;;;;;;;;4955748;28;20127;-75
2022/06/18 08:00:16;;;;;;;8.23;1.63;;;;;;;;;;4943956;28;21275;-75
2022/06/18 08:02:43;;;;;;;5.15;1.67;;;;;;;;;;4946527;28;20130;-75
2022/06/18 08:05:12;;;;;;;4.30;1.42;;;;;;;;;;4946203;28;20087;-75
2022/06/18 08:07:39;;;;;;;5.75;1.90;;;;;;;;;;4945403;28;20499;-75
2022/06/18 08:10:07;;;;;;;6.72;1.50;;;;;;;;;;4947273;28;20051;-75
2022/06/18 08:12:34;;;;;;;4.72;1.67;;;;;;;;;;4945645;28;20051;-75
2022/06/18 08:15:03;;;;;;;6.28;1.55;;;;;;;;;;4946581;28;20047;-75
2022/06/18 08:17:30;;;;;;;6.07;1.30;;;;;;;;;;4945636;28;20066;-75
2022/06/18 08:19:58;;;;;;;5.95;1.40;;;;;;;;;;4946360;28;20139;-75
2022/06/18 08:22:25;;;;;;;6.45;1.50;;;;;;;;;;4944770;28;20055;-75
2022/06/18 08:24:53;;;;;;;5.20;1.45;;;;;;;;;;4946870;28;20059;-75
2022/06/18 08:27:21;;;;;;;5.65;1.50;;;;;;;;;;4944847;28;20062;-75
2022/06/18 08:29:48;;;;;;;3.20;1.27;;;;;;;;;;4948576;28;20066;-75
2022/06/18 08:32:17;;;;;;;6.15;1.77;;;;;;;;;;4947660;28;20058;-75
2022/06/18 08:34:44;;;;;;;7.18;1.38;;;;;;;;;;4950650;28;20043;-75
2022/06/18 08:37:12;;;;;;;5.10;1.90;;;;;;;;;;4953457;28;20043;-75
2022/06/18 08:39:40;;;;;;;5.63;1.60;;;;;;;;;;4951086;28;20043;-75
2022/06/18 08:42:14;;;;;;;6.50;1.65;;;;;;;;;;4945386;28;20111;-75
2022/06/18 08:44:48;;;;;;;5.38;1.48;;;;;;;;;;4950295;28;20501;-75
2022/06/18 08:47:24;;;;;;;8.15;2.03;;;;;;;;;;4958099;28;20063;-75
2022/06/18 08:50:09;;;;;;;7.25;1.70;;;;;;;;;;4948080;28;20081;-75
2022/06/18 08:52:41;;;;;;;6.60;1.48;;;;;;;;;;4946587;28;20055;-75
2022/06/18 08:55:12;;;;;;;5.88;1.55;;;;;;;;;;4944866;28;20419;-75
2022/06/18 08:57:41;;;;;;;4.95;1.52;;;;;;;;;;4948241;28;20054;-75
2022/06/18 09:00:12;;;;;;;6.43;1.90;;;;;;;;;;4950587;28;20051;-75
2022/06/18 09:02:41;;;;;;;8.80;1.67;;;;;;;;;;4952826;28;20065;-75
2022/06/18 09:05:12;;;;;;;5.90;1.48;;;;;;;;;;4950515;28;20054;-75
2022/06/18 09:08:03;;;;;;;6.85;1.80;;;;;;;;;;4952672;28;20055;-75
2022/06/18 09:10:35;;;;;;;7.03;1.42;;;;;;;;;;4929183;28;20059;-75
2022/06/18 09:13:03;;;;;;;6.60;1.63;;;;;;;;;;4953022;28;20553;-75
2022/06/18 09:15:34;;;;;;;6.38;1.67;;;;;;;;;;4953121;28;20059;-75
2022/06/18 09:18:06;;;;;;;4.03;1.40;;;;;;;;;;4949585;28;20043;-75
2022/06/18 09:20:36;;;;;;;4.57;1.05;;;;;;;;;;4948500;28;20066;-75
2022/06/18 09:23:07;;;;;;;3.97;1.23;;;;;;;;;;4948621;28;20748;-75
2022/06/18 09:25:39;;;;;;;7.38;1.77;;;;;;;;;;4954965;28;20144;-75
2022/06/18 09:28:08;;;;;;;6.97;1.40;;;;;;;;;;4953222;28;20462;-75
2022/06/18 09:30:38;;;;;;;6.72;1.25;;;;;;;;;;4954607;28;20113;-75
2022/06/18 09:33:09;;;;;;;6.20;1.42;;;;;;;;;;4954919;28;20058;-75
2022/06/18 09:35:37;;;;;;;4.32;1.23;;;;;;;;;;4956735;28;20416;-75
2022/06/18 09:38:07;;;;;;;3.53;1.00;;;;;;;;;;4953433;28;20071;-75
2022/06/18 09:40:35;;;;;;;4.97;1.40;;;;;;;;;;4953719;28;20074;-75
2022/06/18 09:43:09;;;;;;;4.22;1.27;;;;;;;;;;4954192;28;20617;-75
2022/06/18 09:45:43;;;;;;;4.85;1.27;;;;;;;;;;4952883;28;20047;-75
2022/06/18 09:48:12;;;;;;;6.70;1.25;;;;;;;;;;4954355;28;20057;-75
2022/06/18 09:50:41;;;;;;;5.60;1.30;;;;;;;;;;4951671;28;20086;-75
2022/06/18 09:53:13;;;;;;;4.00;1.25;;;;;;;;;;4952569;28;20055;-75
2022/06/18 09:55:43;;;;;;;6.90;1.50;;;;;;;;;;4955480;28;20051;-75
2022/06/18 09:58:14;;;;;;;3.67;1.13;;;;;;;;;;4955143;28;20078;-75
2022/06/18 10:00:42;;;;;;;5.72;1.23;;;;;;;;;;4954729;28;20050;-75
2022/06/18 10:03:13;;;;;;;3.83;1.10;;;;;;;;;;4955561;28;20061;-75
2022/06/18 10:08:31;;;;;;;5.63;1.58;;;;;;;;;;4952165;28;20061;-75
2022/06/18 10:11:07;;;;;;;5.68;1.30;;;;;;;;;;4955366;28;20059;-75
2022/06/18 10:13:37;;;;;;;4.32;1.10;;;;;;;;;;4952672;28;20098;-75
2022/06/18 10:16:07;;;;;;;6.00;1.10;;;;;;;;;;4948968;29;20085;-75
2022/06/18 10:18:42;;;;;;;3.90;1.27;;;;;;;;;;4953264;28;20054;-75
2022/06/18 10:21:14;;;;;;;5.95;1.60;;;;;;;;;;4948719;28;20494;-75
2022/06/18 10:23:51;;;;;;;4.32;1.33;;;;;;;;;;4949068;28;20146;-75
2022/06/18 10:26:23;;;;;;;4.95;1.17;;;;;;;;;;4953307;28;20046;-75
2022/06/18 10:28:57;;;;;;;4.72;1.40;;;;;;;;;;4953980;28;20047;-75
2022/06/18 10:31:30;;;;;;;6.28;1.48;;;;;;;;;;4950573;28;20553;-75
2022/06/18 10:34:04;;;;;;;5.18;1.35;;;;;;;;;;4953292;28;20063;-75
2022/06/18 10:36:37;;;;;;;5.53;1.48;;;;;;;;;;4954394;28;20095;-75
2022/06/18 10:39:12;;;;;;;6.97;1.48;;;;;;;;;;4953261;28;20054;-75
2022/06/18 10:41:43;;;;;;;5.57;1.55;;;;;;;;;;4953112;28;20054;-75
2022/06/18 10:44:18;;;;;;;7.20;1.65;;;;;;;;;;4948848;28;20402;-75
2022/06/18 10:46:45;;;;;;;5.45;1.30;;;;;;;;;;4953901;28;20569;-75
2022/06/18 10:49:13;;;;;;;5.03;1.40;;;;;;;;;;4946404;28;20047;-75
2022/06/18 10:51:46;;;;;;;7.40;1.88;;;;;;;;;;4952425;28;20113;-75
2022/06/18 10:54:13;;;;;;;5.93;1.63;;;;;;;;;;4947906;28;20545;-75
2022/06/18 10:56:52;;;;;;;9.27;2.22;;;;;;;;;;4951409;28;20059;-75
2022/06/18 10:59:30;;;;;;;8.00;1.95;;;;;;;;;;4952798;28;20132;-75
2022/06/18 11:01:57;;;;;;;9.82;2.13;;;;;;;;;;4953301;28;20058;-75
2022/06/18 11:04:26;;;;;;;10.57;1.92;;;;;;;;;;4951131;28;20058;-75
2022/06/18 11:06:58;;;;;;;9.07;1.88;;;;;;;;;;4949865;28;20054;-75
2022/06/18 11:09:27;;;;;;;7.85;1.88;;;;;;;;;;4940653;28;20173;-75
2022/06/18 11:11:55;;;;;;;7.95;2.30;;;;;;;;;;4950655;28;20062;-75
2022/06/18 11:14:22;;;;;;;8.13;1.98;;;;;;;;;;4946858;28;20390;-75
2022/06/18 11:16:51;;;;;;;11.57;2.45;;;;;;;;;;4944609;28;20057;-75
2022/06/18 11:19:20;;;;;;;6.05;1.73;;;;;;;;;;4945549;28;20055;-75
2022/06/18 11:21:47;;;;;;;9.15;2.22;;;;;;;;;;4948950;28;20063;-75
2022/06/18 11:24:23;;;;;;;7.88;2.00;;;;;;;;;;4942609;28;20413;-75
2022/06/18 11:26:55;;;;;;;8.43;2.13;;;;;;;;;;4949859;28;20482;-75
2022/06/18 11:29:33;;;;;;;9.00;2.10;;;;;;;;;;4943643;28;20054;-75
2022/06/18 11:32:02;;;;;;;13.25;2.03;;;;;;;;;;4945800;28;20047;-75
2022/06/18 11:34:31;;;;;;;8.25;1.80;;;;;;;;;;4941890;28;20539;-75
2022/06/18 11:36:59;;;;;;;7.07;2.22;;;;;;;;;;4943807;28;20758;-75
2022/06/18 11:39:35;;;;;;;5.75;1.92;;;;;;;;;;4944367;28;20058;-75
2022/06/18 11:42:06;;;;;;;9.40;2.28;;;;;;;;;;4944211;28;20126;-75
2022/06/18 11:44:35;;;;;;;11.00;2.67;;;;;;;;;;4947291;28;20541;-75
2022/06/18 11:47:06;;;;;;;11.35;2.47;;;;;;;;;;4938543;28;20047;-75
2022/06/18 11:49:35;;;;;;;9.02;2.20;;;;;;;;;;4942276;28;20059;-75
2022/06/18 11:52:14;;;;;;;7.72;2.15;;;;;;;;;;4943059;28;20110;-75
2022/06/18 11:54:45;;;;;;;8.65;2.10;;;;;;;;;;4944108;28;20053;-75
2022/06/18 11:57:17;;;;;;;9.90;2.30;;;;;;;;;;4941550;28;20054;-75
2022/06/18 11:59:52;;;;;;;9.73;2.47;;;;;;;;;;4949783;28;20061;-75
2022/06/18 12:02:22;;;;;;;10.55;2.75;;;;;;;;;;4945761;28;20050;-75
2022/06/18 12:04:51;;;;;;;12.50;2.90;;;;;;;;;;4947396;28;20046;-75
2022/06/18 12:07:20;;;;;;;7.80;2.40;;;;;;;;;;4945855;28;20087;-75
2022/06/18 12:09:49;;;;;;;9.23;2.38;;;;;;;;;;4944119;28;20054;-75
2022/06/18 12:12:36;;;;;;;12.02;2.35;;;;;;;;;;4944978;28;20189;-75
2022/06/18 12:15:07;;;;;;;10.30;2.75;;;;;;;;;;4941397;28;20051;-75
2022/06/18 12:17:37;;;;;;;11.97;2.93;;;;;;;;;;4943304;28;20062;-75
2022/06/18 12:20:11;;;;;;;9.23;2.42;;;;;;;;;;4946027;28;20287;-75
2022/06/18 12:22:41;;;;;;;13.48;2.70;;;;;;;;;;4942972;28;20055;-75
2022/06/18 12:25:26;;;;;;;7.78;2.30;;;;;;;;;;4948437;28;20126;-75
2022/06/18 12:27:58;;;;;;;14.88;2.97;;;;;;;;;;4944831;28;20042;-75
2022/06/18 12:30:28;;;;;;;12.47;2.87;;;;;;;;;;4948458;28;20318;-75
2022/06/18 12:32:58;;;;;;;9.52;3.03;;;;;;;;;;4948327;28;20082;-75
2022/06/18 12:35:31;;;;;;;9.77;2.30;;;;;;;;;;4945580;28;20153;-75
2022/06/18 12:38:03;;;;;;;11.18;2.88;;;;;;;;;;4946531;28;20445;-75
2022/06/18 12:40:30;;;;;;;;;;;;;;;;;;4949090;28;20081;-75
2022/06/18 12:43:05;;;;;;;13.45;3.10;;;;;;;;;;4945987;28;19973;-75
2022/06/18 12:45:37;;;;;;;14.52;3.05;;;;;;;;;;4942891;28;20054;-75
2022/06/18 12:48:08;;;;;;;12.23;2.95;;;;;;;;;;4947289;28;20051;-75
2022/06/18 12:50:41;;;;;;;7.90;2.33;;;;;;;;;;4950394;28;20059;-75
2022/06/18 12:53:28;;;;;;;9.82;3.10;;;;;;;;;;4949627;28;20851;-75
2022/06/18 12:56:01;;;;;;;8.00;2.60;;;;;;;;;;4946796;28;20058;-75
2022/06/18 12:58:36;;;;;;;9.30;3.03;;;;;;;;;;4946224;28;20538;-75
2022/06/18 13:01:05;;;;;;;12.02;3.20;;;;;;;;;;4953561;28;20054;-75
2022/06/18 13:03:48;;;;;;;11.82;2.83;;;;;;;;;;4947052;28;20070;-74
2022/06/18 13:06:20;;;;;;;10.27;3.08;;;;;;;;;;4946042;28;20051;-74
2022/06/18 13:08:53;;;;;;;12.07;3.00;;;;;;;;;;4953952;28;20142;-74
2022/06/18 13:11:20;;;;;;;;;;;;;;;;;;4956009;28;20051;-74
2022/06/18 13:13:52;;;;;;;10.50;3.10;;;;;;;;;;4952593;28;20732;-74
2022/06/18 13:16:22;;;;;;;10.82;3.25;;;;;;;;;;4955057;28;20054;-74
2022/06/18 13:18:54;;;;;;;10.07;3.20;;;;;;;;;;4951919;28;20493;-74
2022/06/18 13:21:21;;;;;;;12.95;4.32;;;;;;;;;;4947419;28;20051;-74
2022/06/18 13:29:28;;;;;;;14.45;3.40;;;;;;;;;;4952098;28;20763;-74
2022/06/18 13:31:58;;;;;;;13.70;3.38;;;;;;;;;;4953581;28;20063;-73
2022/06/18 13:34:33;;;;;;;13.48;2.92;;;;;;;;;;4948222;28;20061;-74
2022/06/18 13:37:03;;;;;;;17.33;3.47;;;;;;;;;;4951088;28;20046;-74
2022/06/18 13:39:47;;;;;;;15.38;2.95;;;;;;;;;;4953771;28;20071;-73
2022/06/18 13:42:20;;;;;;;15.00;3.45;;;;;;;;;;4954096;28;20046;-72
2022/06/18 13:44:54;;;;;;;12.48;3.20;;;;;;;;;;4952938;28;20434;-72
2022/06/18 13:47:26;;;;;;;11.98;2.70;;;;;;;;;;4953989;28;20478;-72
2022/06/18 13:50:02;;;;;;;14.35;3.42;;;;;;;;;;4952103;28;20454;-72
2022/06/18 13:52:37;;;;;;;10.73;2.97;;;;;;;;;;4951469;28;20106;-72
2022/06/18 13:55:05;;;;;;;10.70;3.17;;;;;;;;;;4954074;28;20054;-72
2022/06/18 13:57:38;;;;;;;12.82;3.20;;;;;;;;;;4954151;28;20062;-72
2022/06/18 14:00:07;;;;;;;12.30;2.80;;;;;;;;;;4950418;28;20066;-72
2022/06/18 14:02:36;;;;;;;14.55;3.42;;;;;;;;;;4954009;28;20062;-73
2022/06/18 14:05:05;;;;;;;14.93;3.47;;;;;;;;;;4953661;28;20050;-73
2022/06/18 14:07:33;;;;;;;14.40;3.13;;;;;;;;;;4951554;28;20058;-73
2022/06/18 14:10:01;;;;;;;12.02;3.00;;;;;;;;;;4955477;28;20110;-73
2022/06/18 14:12:31;;;;;;;9.10;2.90;;;;;;;;;;4951958;28;20053;-73
2022/06/18 14:15:21;;;;;;;11.35;2.75;;;;;;;;;;4949741;28;20089;-73
2022/06/18 14:17:49;;;;;;;10.63;3.30;;;;;;;;;;4961411;28;20138;-73
2022/06/18 14:20:22;;;;;;;11.65;3.20;;;;;;;;;;4953456;28;20063;-73
2022/06/18 14:22:58;;;;;;;9.98;2.90;;;;;;;;;;4953579;28;20416;-73
2022/06/18 14:25:25;;;;;;;16.30;3.40;;;;;;;;;;4951033;28;20059;-73
2022/06/18 14:27:53;;;;;;;11.98;3.00;;;;;;;;;;4954402;28;20050;-73
2022/06/18 14:30:23;;;;;;;9.07;3.00;;;;;;;;;;4952548;28;20050;-73
2022/06/18 14:32:52;;;;;;;16.30;5.05;;;;;;;;;;4948761;28;20502;-73
2022/06/18 14:35:25;;;;;;;11.93;3.80;;;;;;;;;;4955556;28;20053;-73
2022/06/18 14:37:53;;;;;;;10.95;2.90;;;;;;;;;;4949856;28;20065;-73
2022/06/18 14:40:23;;;;;;;11.15;2.90;;;;;;;;;;4955457;28;20129;-73
2022/06/18 14:43:01;;;;;;;12.63;3.80;;;;;;;;;;4951370;28;20133;-73
2022/06/18 14:45:36;;;;;;;11.65;2.88;;;;;;;;;;4952386;28;20047;-73
2022/06/18 14:48:15;;;;;;;9.07;2.95;;;;;;;;;;4949340;28;20564;-73
2022/06/18 14:50:51;;;;;;;12.05;3.20;;;;;;;;;;4952929;28;20101;-73
2022/06/18 14:53:27;;;;;;;11.70;3.60;;;;;;;;;;4951844;28;20105;-73
2022/06/18 14:56:01;;;;;;;14.38;3.60;;;;;;;;;;4954844;28;20051;-73
2022/06/18 14:58:46;;;;;;;13.27;3.58;;;;;;;;;;4952129;28;20538;-73
2022/06/18 15:01:24;;;;;;;11.32;3.63;;;;;;;;;;4948871;28;20101;-73
2022/06/18 15:03:56;;;;;;;16.00;3.97;;;;;;;;;;4946210;28;20764;-73
2022/06/18 15:06:23;;;;;;;17.90;4.13;;;;;;;;;;4945651;28;20405;-73
2022/06/18 15:08:54;;;;;;;16.33;5.32;;;;;;;;;;4950746;28;20066;-73
2022/06/18 15:11:22;;;;;;;17.42;4.72;;;;;;;;;;4948995;28;20051;-73